Time;durP1;ratioP1;P1;durP2;ratioP2;P2;SDS_P1;SDS_P2;PMS_P1;PMS_P2;Temp;Humidity;BMP_temperature;BMP_pressure;BME280_temperature;BME280_humidity;BME280_pressure;Samples;Min_cycle;Max_cycle;Signal;HPM_P1;HPM_P2
2023/02/26 00:02:04;;;;;;;2.30;1.70;;;-1.00;99.90;;;;;;5073728;28;20560;-64
2023/02/26 00:04:31;;;;;;;5.30;1.67;;;-1.00;99.90;;;;;;5073794;28;20254;-64
2023/02/26 00:06:59;;;;;;;4.40;2.15;;;-1.00;99.90;;;;;;5074133;28;20197;-65
2023/02/26 00:09:26;;;;;;;4.38;2.15;;;-1.10;99.90;;;;;;5074394;28;20248;-63
2023/02/26 00:11:53;;;;;;;6.50;2.08;;;-1.00;99.90;;;;;;5073826;28;20216;-63
2023/02/26 00:14:20;;;;;;;3.28;2.10;;;-1.10;99.90;;;;;;5073518;28;20201;-64
2023/02/26 00:16:51;;;;;;;2.65;2.15;;;-1.10;99.90;;;;;;5073440;28;20728;-63
2023/02/26 00:19:19;;;;;;;1.58;1.48;;;-1.10;99.90;;;;;;5073437;28;20781;-64
2023/02/26 00:21:46;;;;;;;2.53;1.95;;;-1.10;99.90;;;;;;5073776;28;20204;-63
2023/02/26 00:24:14;;;;;;;5.18;2.90;;;-1.10;99.90;;;;;;5073711;28;20197;-63
2023/02/26 00:26:41;;;;;;;8.52;2.65;;;-1.00;99.90;;;;;;5075103;28;20207;-64
2023/02/26 00:29:08;;;;;;;4.30;2.53;;;-1.10;99.90;;;;;;5078175;28;20296;-63
2023/02/26 00:31:35;;;;;;;3.30;2.00;;;-1.10;99.90;;;;;;5077760;28;20204;-63
2023/02/26 00:34:02;;;;;;;2.20;1.98;;;-1.10;99.90;;;;;;5077482;28;20201;-64
2023/02/26 00:36:41;;;;;;;2.25;1.50;;;-1.10;99.90;;;;;;5077599;28;20216;-63
2023/02/26 00:39:22;;;;;;;1.88;1.50;;;-1.10;99.90;;;;;;5076535;28;20236;-64
2023/02/26 00:41:49;;;;;;;1.88;1.60;;;-1.10;99.90;;;;;;5076644;28;20651;-64
2023/02/26 00:44:17;;;;;;;5.45;2.03;;;-1.10;99.90;;;;;;5077456;28;20207;-64
2023/02/26 00:46:49;;;;;;;4.18;2.30;;;-1.10;99.90;;;;;;5077816;28;20201;-65
2023/02/26 00:49:22;;;;;;;2.60;1.70;;;-1.20;99.90;;;;;;5077230;28;20243;-63
2023/02/26 00:51:53;;;;;;;5.22;1.90;;;-1.20;99.90;;;;;;5076933;28;20197;-64
2023/02/26 00:54:23;;;;;;;2.58;1.98;;;-1.20;99.90;;;;;;5077961;28;20193;-64
2023/02/26 00:56:51;;;;;;;6.88;2.90;;;-1.20;99.90;;;;;;5077062;28;20663;-65
2023/02/26 00:59:19;;;;;;;2.63;1.90;;;-1.10;99.90;;;;;;5077277;28;20220;-64
2023/02/26 01:01:47;;;;;;;5.30;2.38;;;-1.10;99.90;;;;;;5076941;28;20580;-64
2023/02/26 01:04:16;;;;;;;6.82;2.22;;;-1.10;99.90;;;;;;5076604;28;20220;-64
2023/02/26 01:06:46;;;;;;;2.35;1.50;;;-1.00;99.90;;;;;;5076720;28;20194;-64
2023/02/26 01:09:21;;;;;;;5.10;1.90;;;-1.00;99.90;;;;;;5076878;28;20227;-64
2023/02/26 01:11:51;;;;;;;5.95;1.80;;;-1.10;99.90;;;;;;5076843;28;20184;-64
2023/02/26 01:14:19;;;;;;;4.07;2.20;;;-1.00;99.90;;;;;;5076735;28;20555;-63
2023/02/26 01:16:53;;;;;;;2.50;1.25;;;-1.00;99.90;;;;;;5076785;28;20220;-65
2023/02/26 01:19:29;;;;;;;1.65;1.45;;;-1.00;99.90;;;;;;5076940;28;20224;-64
2023/02/26 01:22:03;;;;;;;1.92;1.70;;;-1.00;99.90;;;;;;5077404;28;20207;-64
2023/02/26 01:24:33;;;;;;;2.08;1.50;;;-1.00;99.90;;;;;;5076472;28;20180;-64
2023/02/26 01:27:01;;;;;;;2.47;1.60;;;-1.00;99.90;;;;;;5076739;28;20193;-65
2023/02/26 01:29:28;;;;;;;6.40;1.98;;;-0.90;99.90;;;;;;5076147;28;20233;-63
2023/02/26 01:32:05;;;;;;;2.15;1.33;;;-0.90;99.90;;;;;;5076773;28;20212;-64
2023/02/26 01:34:36;;;;;;;3.10;2.20;;;-0.90;99.90;;;;;;5076758;28;20205;-64
2023/02/26 01:37:13;;;;;;;7.40;1.92;;;-0.90;99.90;;;;;;5076778;28;20236;-64
2023/02/26 01:39:46;;;;;;;2.70;1.80;;;-0.90;99.90;;;;;;5076660;28;20216;-64
2023/02/26 01:42:19;;;;;;;3.15;1.77;;;-0.90;99.90;;;;;;5077228;28;20196;-63
2023/02/26 01:44:55;;;;;;;2.42;1.30;;;-0.90;99.90;;;;;;5076631;28;20185;-63
2023/02/26 01:47:28;;;;;;;6.43;1.55;;;-0.90;99.90;;;;;;5075785;28;20634;-64
2023/02/26 01:49:56;;;;;;;3.75;1.75;;;-0.90;99.90;;;;;;5076254;28;20192;-64
2023/02/26 01:52:59;;;;;;;1.95;1.33;;;-0.90;99.90;;;;;;5076085;28;20205;-64
2023/02/26 01:55:28;;;;;;;1.80;1.38;;;-0.80;99.90;;;;;;5076046;28;20191;-63
2023/02/26 01:57:59;;;;;;;3.70;1.73;;;-0.80;99.90;;;;;;5075472;28;20709;-63
2023/02/26 02:00:26;;;;;;;1.98;1.73;;;-0.80;99.90;;;;;;5075973;28;20189;-66
2023/02/26 02:02:52;;;;;;;3.25;1.55;;;-0.80;99.90;;;;;;5075394;28;20204;-63
2023/02/26 02:05:24;;;;;;;3.25;1.60;;;-0.80;99.90;;;;;;5075474;28;20201;-64
2023/02/26 02:07:51;;;;;;;3.63;1.40;;;-0.80;99.90;;;;;;5075687;28;20350;-64
2023/02/26 02:10:18;;;;;;;4.13;1.58;;;-0.70;99.90;;;;;;5075781;28;20201;-65
2023/02/26 02:12:51;;;;;;;4.15;1.65;;;-0.70;99.90;;;;;;5076006;28;20201;-64
2023/02/26 02:15:25;;;;;;;4.38;1.20;;;-0.70;99.90;;;;;;5075445;28;20196;-63
2023/02/26 02:18:01;;;;;;;2.78;1.52;;;-0.70;99.90;;;;;;5075541;28;20228;-64
2023/02/26 02:20:58;;;;;;;3.03;1.58;;;-0.70;99.90;;;;;;5076111;28;20199;-64
2023/02/26 02:23:32;;;;;;;5.30;1.52;;;-0.70;99.90;;;;;;5062415;28;20201;-65
2023/02/26 02:26:27;;;;;;;5.22;1.63;;;-0.60;99.90;;;;;;5075765;28;20188;-63
2023/02/26 02:29:15;;;;;;;4.65;1.30;;;-0.60;99.90;;;;;;5075076;28;20224;-65
2023/02/26 02:31:49;;;;;;;4.93;2.05;;;-0.60;99.90;;;;;;5074853;28;20190;-65
2023/02/26 02:34:21;;;;;;;3.30;1.70;;;-0.60;99.90;;;;;;5074771;28;20188;-65
2023/02/26 02:36:53;;;;;;;2.30;1.23;;;-0.60;99.90;;;;;;5074806;28;20209;-65
2023/02/26 02:39:25;;;;;;;1.63;1.25;;;-0.60;99.90;;;;;;5074524;28;20236;-66
2023/02/26 02:41:57;;;;;;;3.15;1.50;;;-0.60;99.90;;;;;;5075046;28;20197;-65
2023/02/26 02:44:27;;;;;;;3.30;1.30;;;-0.60;99.90;;;;;;5075702;28;20186;-65
2023/02/26 02:46:58;;;;;;;1.73;1.10;;;-0.60;99.90;;;;;;5075548;28;20206;-65
2023/02/26 02:49:29;;;;;;;2.78;1.55;;;-0.60;99.90;;;;;;5074390;28;20228;-65
2023/02/26 02:52:01;;;;;;;1.50;1.40;;;-0.60;99.90;;;;;;5075073;28;20197;-63
2023/02/26 02:54:33;;;;;;;4.15;1.48;;;-0.60;99.90;;;;;;5075677;28;20185;-64
2023/02/26 02:57:06;;;;;;;2.42;1.35;;;-0.60;99.90;;;;;;5075707;28;20216;-64
2023/02/26 02:59:39;;;;;;;1.55;1.15;;;-0.60;99.90;;;;;;5075409;28;20221;-65
2023/02/26 03:02:12;;;;;;;1.30;1.20;;;-0.60;99.90;;;;;;5077610;28;20188;-66
2023/02/26 03:04:39;;;;;;;3.38;1.70;;;-0.60;99.90;;;;;;5078843;28;20208;-65
2023/02/26 03:07:06;;;;;;;1.90;1.45;;;-0.60;99.90;;;;;;5078539;28;20201;-65
2023/02/26 03:09:33;;;;;;;2.47;1.67;;;-0.60;99.90;;;;;;5078219;28;20221;-65
2023/02/26 03:12:00;;;;;;;2.97;1.40;;;-0.60;99.90;;;;;;5077990;28;20205;-63
2023/02/26 03:14:27;;;;;;;1.70;1.30;;;-0.60;99.90;;;;;;5076271;28;20212;-65
2023/02/26 03:17:19;;;;;;;1.98;1.30;;;-0.70;99.90;;;;;;5074979;28;20243;-63
2023/02/26 03:19:59;;;;;;;2.63;1.60;;;-0.70;99.90;;;;;;5074850;28;20189;-64
2023/02/26 03:22:43;;;;;;;2.25;1.48;;;-0.70;99.90;;;;;;5074822;28;20181;-64
2023/02/26 03:25:14;;;;;;;2.47;1.25;;;-0.60;99.90;;;;;;5074407;28;20193;-65
2023/02/26 03:27:47;;;;;;;3.83;1.63;;;-0.70;99.90;;;;;;5074313;28;20224;-65
2023/02/26 03:30:19;;;;;;;6.10;1.63;;;-0.70;99.90;;;;;;5073142;28;20189;-65
2023/02/26 03:32:54;;;;;;;7.72;1.90;;;-0.70;99.90;;;;;;5072999;28;20647;-64
2023/02/26 03:35:29;;;;;;;2.17;1.50;;;-0.60;99.90;;;;;;5073982;28;20184;-65
2023/02/26 03:38:00;;;;;;;3.95;1.70;;;-0.60;99.90;;;;;;5073857;28;20231;-64
2023/02/26 03:40:31;;;;;;;2.53;1.75;;;-0.60;99.90;;;;;;5073708;28;20553;-64
2023/02/26 03:43:02;;;;;;;2.38;1.40;;;-0.60;99.90;;;;;;5073716;28;20189;-65
2023/02/26 03:45:32;;;;;;;2.65;2.38;;;-0.60;99.90;;;;;;5073300;28;20189;-64
2023/02/26 03:48:02;;;;;;;3.67;1.60;;;-0.60;99.90;;;;;;5073811;28;20217;-65
2023/02/26 03:50:33;;;;;;;2.72;1.90;;;-0.60;99.90;;;;;;5073531;28;20205;-63
2023/02/26 03:53:03;;;;;;;3.05;1.65;;;-0.50;99.90;;;;;;5073151;28;20646;-66
2023/02/26 03:55:36;;;;;;;1.35;1.20;;;-0.50;99.90;;;;;;5072842;28;20549;-65
2023/02/26 03:58:02;;;;;;;1.67;1.40;;;-0.50;99.90;;;;;;5072876;28;20728;-64
2023/02/26 04:00:32;;;;;;;3.38;1.38;;;-0.50;99.90;;;;;;5073468;28;20197;-64
2023/02/26 04:03:05;;;;;;;2.42;1.60;;;-0.50;99.90;;;;;;5072929;28;20201;-65
2023/02/26 04:05:35;;;;;;;1.75;1.42;;;-0.50;99.90;;;;;;5073292;28;20185;-66
2023/02/26 04:11:18;;;;;;;2.38;1.80;;;-0.50;99.90;;;;;;5091516;28;20549;-64
2023/02/26 04:13:45;;;;;;;1.27;1.17;;;-0.40;99.90;;;;;;5091455;28;20188;-64
2023/02/26 04:16:12;;;;;;;5.00;1.73;;;-0.40;99.90;;;;;;5091780;28;20390;-64
2023/02/26 04:18:39;;;;;;;8.88;1.55;;;-0.40;99.90;;;;;;5092099;28;20334;-63
2023/02/26 04:21:06;;;;;;;1.27;1.17;;;-0.40;99.90;;;;;;5092248;28;20200;-64
2023/02/26 04:23:33;;;;;;;2.28;1.60;;;-0.40;99.90;;;;;;5093502;28;20291;-63
2023/02/26 04:26:00;;;;;;;8.13;2.20;;;-0.40;99.90;;;;;;5093324;28;20200;-63
2023/02/26 04:28:28;;;;;;;3.83;1.88;;;-0.40;99.90;;;;;;5092667;28;20224;-64
2023/02/26 04:30:55;;;;;;;2.22;1.70;;;-0.40;99.90;;;;;;5092621;28;20256;-63
2023/02/26 04:33:23;;;;;;;4.72;1.50;;;-0.40;99.90;;;;;;5092442;28;20207;-64
2023/02/26 04:35:49;;;;;;;1.30;1.20;;;-0.40;99.90;;;;;;5092151;28;20723;-64
2023/02/26 04:38:16;;;;;;;1.02;0.93;;;-0.40;99.90;;;;;;5092069;28;20599;-64
2023/02/26 04:40:43;;;;;;;5.18;1.25;;;-0.40;99.90;;;;;;5091511;28;20572;-64
2023/02/26 04:43:10;;;;;;;4.78;1.75;;;-0.40;99.90;;;;;;5090998;28;20222;-64
2023/02/26 04:45:38;;;;;;;1.30;1.20;;;-0.40;99.90;;;;;;5090960;28;20549;-64
2023/02/26 04:48:05;;;;;;;1.85;1.65;;;-0.40;99.90;;;;;;5090572;28;20698;-64
2023/02/26 04:50:31;;;;;;;2.30;1.42;;;-0.40;99.90;;;;;;5090528;28;20222;-64
2023/02/26 04:52:58;;;;;;;2.53;1.67;;;-0.40;99.90;;;;;;5090805;28;20209;-63
2023/02/26 04:55:25;;;;;;;2.05;1.35;;;-0.40;99.90;;;;;;5091388;28;20570;-64
2023/02/26 04:57:52;;;;;;;2.75;1.70;;;-0.40;99.90;;;;;;5092079;28;20240;-64
2023/02/26 05:00:19;;;;;;;1.80;1.25;;;-0.40;99.90;;;;;;5092594;28;20197;-65
2023/02/26 05:02:47;;;;;;;5.00;1.45;;;-0.40;99.90;;;;;;5092143;28;20216;-64
2023/02/26 05:05:14;;;;;;;1.73;1.40;;;-0.40;99.90;;;;;;5077645;28;20304;-63
2023/02/26 05:07:40;;;;;;;2.42;1.35;;;-0.40;99.90;;;;;;5091736;28;20565;-65
2023/02/26 05:10:08;;;;;;;1.42;1.33;;;-0.30;99.90;;;;;;5083423;28;20244;-64
2023/02/26 05:12:36;;;;;;;3.47;1.25;;;-0.40;99.90;;;;;;5071729;28;20212;-63
2023/02/26 05:15:03;;;;;;;3.58;1.85;;;-0.40;99.90;;;;;;5070759;28;20543;-65
2023/02/26 05:17:29;;;;;;;2.30;1.08;;;-0.40;99.90;;;;;;5070034;28;20667;-64
2023/02/26 05:19:58;;;;;;;3.28;1.45;;;-0.40;99.90;;;;;;5070337;28;20574;-64
2023/02/26 05:22:24;;;;;;;3.10;1.20;;;-0.40;99.90;;;;;;5058029;28;20208;-64
2023/02/26 05:24:51;;;;;;;1.60;1.35;;;-0.40;99.90;;;;;;5057368;28;20204;-64
2023/02/26 05:27:19;;;;;;;2.50;1.35;;;-0.50;99.90;;;;;;5056954;28;20206;-63
2023/02/26 05:29:46;;;;;;;1.95;1.20;;;-0.50;99.90;;;;;;5059323;28;20232;-64
2023/02/26 05:32:12;;;;;;;2.58;1.70;;;-0.60;99.90;;;;;;5071754;28;20228;-63
2023/02/26 05:34:39;;;;;;;1.50;1.10;;;-0.70;99.90;;;;;;5074156;28;20204;-63
2023/02/26 05:37:07;;;;;;;4.53;1.55;;;-0.80;99.90;;;;;;5064762;28;20216;-64
2023/02/26 05:39:34;;;;;;;4.05;1.17;;;-0.90;99.90;;;;;;5058985;28;20218;-64
2023/02/26 05:42:01;;;;;;;4.47;1.55;;;-0.90;99.90;;;;;;5060978;28;20193;-64
2023/02/26 05:44:28;;;;;;;3.05;1.15;;;-1.00;99.90;;;;;;5076432;28;20204;-63
2023/02/26 05:46:54;;;;;;;2.17;1.17;;;-1.00;99.90;;;;;;5076186;28;20212;-63
2023/02/26 05:49:21;;;;;;;1.48;0.95;;;-1.10;99.90;;;;;;5076107;28;20604;-64
2023/02/26 05:51:48;;;;;;;2.25;1.23;;;-1.10;99.90;;;;;;5064479;28;20575;-63
2023/02/26 05:54:16;;;;;;;2.17;1.35;;;-1.20;99.90;;;;;;5068915;28;20201;-65
2023/02/26 05:56:43;;;;;;;1.88;1.15;;;-1.20;99.90;;;;;;5061988;28;20197;-64
2023/02/26 05:59:09;;;;;;;5.40;1.25;;;-1.30;99.90;;;;;;5075994;28;20236;-64
2023/02/26 06:01:37;;;;;;;1.67;1.13;;;-1.30;99.90;;;;;;5076401;28;20208;-62
2023/02/26 06:04:04;;;;;;;4.10;1.10;;;-1.30;99.90;;;;;;5076162;28;20292;-63
2023/02/26 06:06:31;;;;;;;3.30;1.30;;;-1.40;99.90;;;;;;5076193;28;20208;-63
2023/02/26 06:09:00;;;;;;;4.63;1.00;;;-1.40;99.90;;;;;;5069934;28;20659;-63
2023/02/26 06:11:28;;;;;;;3.92;1.73;;;-1.40;99.90;;;;;;5063179;28;20643;-65
2023/02/26 06:13:55;;;;;;;9.52;1.85;;;-1.40;99.90;;;;;;5074818;28;20205;-64
2023/02/26 06:16:22;;;;;;;1.80;1.25;;;-1.50;99.90;;;;;;5075478;28;20201;-63
2023/02/26 06:18:49;;;;;;;1.40;1.30;;;-1.50;99.90;;;;;;5075352;28;20231;-65
2023/02/26 06:21:16;;;;;;;4.38;1.80;;;-1.50;99.90;;;;;;5075376;28;20197;-60
2023/02/26 06:23:43;;;;;;;0.93;0.88;;;-1.50;99.90;;;;;;5075392;28;20207;-64
2023/02/26 06:26:10;;;;;;;7.65;1.20;;;-1.50;99.90;;;;;;5075326;28;20208;-63
2023/02/26 06:28:38;;;;;;;1.75;1.65;;;-1.50;99.90;;;;;;5074160;28;20225;-64
2023/02/26 06:31:05;;;;;;;1.55;1.02;;;-1.60;99.90;;;;;;5075065;28;20239;-62
2023/02/26 06:33:31;;;;;;;1.98;1.20;;;-1.50;99.90;;;;;;5074404;28;20200;-63
2023/02/26 06:35:59;;;;;;;2.70;2.13;;;-1.60;99.90;;;;;;5074992;28;20212;-63
2023/02/26 06:38:26;;;;;;;1.52;1.33;;;-1.60;99.90;;;;;;5074713;28;20221;-63
2023/02/26 06:40:52;;;;;;;2.65;1.00;;;-1.60;99.90;;;;;;5075013;28;20196;-62
2023/02/26 06:43:19;;;;;;;1.70;1.33;;;-1.60;99.90;;;;;;5075210;28;20571;-63
2023/02/26 06:45:47;;;;;;;6.18;1.33;;;-1.60;99.90;;;;;;5073986;28;20209;-63
2023/02/26 06:48:14;;;;;;;2.00;1.00;;;-1.60;99.90;;;;;;5074843;28;20573;-63
2023/02/26 06:50:41;;;;;;;1.02;0.93;;;-1.60;99.90;;;;;;5074903;28;20213;-63
2023/02/26 06:53:07;;;;;;;3.03;1.40;;;-1.60;99.90;;;;;;5075498;28;20200;-64
2023/02/26 06:55:34;;;;;;;2.45;1.50;;;-1.60;99.90;;;;;;5074682;28;20201;-63
2023/02/26 06:58:01;;;;;;;1.80;1.05;;;-1.60;99.90;;;;;;5074384;28;20221;-63
2023/02/26 07:00:28;;;;;;;1.70;1.20;;;-1.50;99.90;;;;;;5074715;28;20197;-63
2023/02/26 07:02:57;;;;;;;1.25;1.15;;;-1.50;99.90;;;;;;5074252;28;20205;-64
2023/02/26 07:05:24;;;;;;;2.65;1.80;;;-1.40;99.90;;;;;;5074380;28;20224;-63
2023/02/26 07:07:50;;;;;;;2.42;1.42;;;-1.50;99.90;;;;;;5074619;28;20228;-63
2023/02/26 07:10:20;;;;;;;2.45;1.30;;;-1.40;99.90;;;;;;5073853;28;20228;-63
2023/02/26 07:12:47;;;;;;;1.45;1.30;;;-1.50;99.90;;;;;;5074483;28;20702;-64
2023/02/26 07:15:14;;;;;;;4.60;2.00;;;-1.50;99.90;;;;;;5074520;28;20330;-64
2023/02/26 07:17:41;;;;;;;4.30;1.60;;;-1.50;99.90;;;;;;5074280;28;20220;-64
2023/02/26 07:20:12;;;;;;;2.50;1.67;;;-1.40;99.90;;;;;;5073836;28;20201;-64
2023/02/26 07:22:39;;;;;;;1.75;1.30;;;-1.40;99.90;;;;;;5074453;28;20189;-63
2023/02/26 07:25:07;;;;;;;2.70;1.50;;;-1.40;99.90;;;;;;5074263;28;20209;-64
2023/02/26 07:27:34;;;;;;;6.88;1.45;;;-1.30;99.90;;;;;;5074178;28;20753;-64
2023/02/26 07:30:01;;;;;;;2.65;1.70;;;-1.20;99.90;;;;;;5074746;28;20208;-66
2023/02/26 07:32:28;;;;;;;1.30;1.20;;;-1.10;99.90;;;;;;5074613;28;20201;-64
2023/02/26 07:34:55;;;;;;;2.65;1.55;;;-1.10;99.90;;;;;;5074591;28;20200;-64
2023/02/26 07:37:23;;;;;;;1.20;1.10;;;-1.10;99.90;;;;;;5073997;28;20207;-64
2023/02/26 07:39:51;;;;;;;6.15;1.75;;;-1.00;99.90;;;;;;5074573;28;20706;-64
2023/02/26 07:42:18;;;;;;;1.25;1.00;;;-1.00;99.90;;;;;;5074812;28;20205;-64
2023/02/26 07:44:44;;;;;;;1.90;1.70;;;-0.80;99.90;;;;;;5074469;28;20279;-63
2023/02/26 07:47:11;;;;;;;3.25;1.67;;;-0.80;99.90;;;;;;5055080;28;20201;-65
2023/02/26 07:49:38;;;;;;;3.00;1.40;;;-0.70;99.90;;;;;;5054849;28;20202;-65
2023/02/26 07:52:06;;;;;;;2.00;1.52;;;-0.40;99.90;;;;;;5055373;28;20236;-64
2023/02/26 07:54:35;;;;;;;2.08;1.23;;;-0.10;99.90;;;;;;5059995;28;20622;-65
2023/02/26 07:57:02;;;;;;;4.07;1.50;;;0.00;99.90;;;;;;5066326;28;20201;-64
2023/02/26 07:59:29;;;;;;;1.60;1.00;;;0.20;99.90;;;;;;5074500;28;20224;-63
2023/02/26 08:01:56;;;;;;;1.88;1.10;;;0.30;99.90;;;;;;5055186;28;20198;-64
2023/02/26 08:04:23;;;;;;;3.22;1.65;;;0.40;99.90;;;;;;5054438;28;20206;-65
2023/02/26 08:06:49;;;;;;;1.70;1.40;;;0.50;99.90;;;;;;5053781;28;20671;-65
2023/02/26 08:09:16;;;;;;;2.83;1.05;;;0.40;99.90;;;;;;5053770;28;20237;-64
2023/02/26 08:11:46;;;;;;;4.10;1.60;;;0.40;99.90;;;;;;5072515;28;20228;-65
2023/02/26 08:14:13;;;;;;;6.85;1.25;;;0.40;99.90;;;;;;5058449;28;20216;-65
2023/02/26 08:16:40;;;;;;;1.30;1.20;;;0.50;99.90;;;;;;5073585;28;20201;-65
2023/02/26 08:19:07;;;;;;;1.90;1.30;;;0.50;99.90;;;;;;5064854;28;20233;-64
2023/02/26 08:21:34;;;;;;;3.63;1.45;;;0.50;99.90;;;;;;5055885;28;20269;-64
2023/02/26 08:24:00;;;;;;;3.78;1.90;;;0.50;99.90;;;;;;5064534;28;20199;-65
2023/02/26 08:26:27;;;;;;;1.75;1.38;;;0.60;99.90;;;;;;5053567;28;20212;-64
2023/02/26 08:28:55;;;;;;;1.85;1.35;;;0.60;99.90;;;;;;5065030;28;20225;-64
2023/02/26 08:31:22;;;;;;;2.30;1.35;;;0.70;99.90;;;;;;5058809;28;20219;-64
2023/02/26 08:33:49;;;;;;;4.75;1.45;;;0.90;99.90;;;;;;5061090;28;20224;-64
2023/02/26 08:36:16;;;;;;;1.25;1.05;;;1.00;99.90;;;;;;5059300;28;20204;-66
2023/02/26 08:38:43;;;;;;;4.70;1.58;;;1.20;99.90;;;;;;5061540;28;20714;-65
2023/02/26 08:41:09;;;;;;;1.50;0.90;;;1.30;99.90;;;;;;5059906;28;20197;-64
2023/02/26 08:43:36;;;;;;;3.90;1.75;;;1.40;99.90;;;;;;5061640;28;20312;-66
2023/02/26 08:46:05;;;;;;;3.67;1.38;;;1.40;99.20;;;;;;5057279;28;20676;-64
2023/02/26 08:48:32;;;;;;;2.80;1.27;;;1.40;98.90;;;;;;5064493;28;20222;-65
2023/02/26 08:50:59;;;;;;;1.48;1.33;;;1.40;98.60;;;;;;5065228;28;20227;-65
2023/02/26 08:53:25;;;;;;;1.50;1.02;;;1.50;98.40;;;;;;5059229;28;20555;-66
2023/02/26 08:55:53;;;;;;;4.57;2.38;;;1.50;98.10;;;;;;5060029;28;20201;-64
2023/02/26 08:58:20;;;;;;;2.22;1.30;;;1.50;97.50;;;;;;5071799;28;20221;-65
2023/02/26 09:00:47;;;;;;;2.67;1.10;;;1.50;97.20;;;;;;5067547;28;20204;-64
2023/02/26 09:03:16;;;;;;;2.20;1.10;;;1.50;96.90;;;;;;5073125;28;20205;-65
2023/02/26 09:05:42;;;;;;;1.63;0.90;;;1.50;96.50;;;;;;5059088;28;20213;-65
2023/02/26 09:08:10;;;;;;;2.92;1.27;;;1.60;96.30;;;;;;5057598;28;20226;-64
2023/02/26 09:10:37;;;;;;;2.65;0.90;;;1.60;95.50;;;;;;5057145;28;20217;-65
2023/02/26 09:13:04;;;;;;;1.35;1.05;;;1.70;95.00;;;;;;5075982;28;20201;-64
2023/02/26 09:15:31;;;;;;;1.42;0.95;;;1.70;94.60;;;;;;5076732;28;20212;-65
2023/02/26 09:17:58;;;;;;;1.50;1.10;;;1.70;94.10;;;;;;5058948;28;20225;-64
2023/02/26 09:20:27;;;;;;;2.35;1.02;;;1.70;93.70;;;;;;5060899;28;20205;-65
2023/02/26 09:22:54;;;;;;;3.00;1.50;;;1.70;93.00;;;;;;5065831;28;20213;-65
2023/02/26 09:25:21;;;;;;;3.33;1.35;;;1.80;92.50;;;;;;5065062;28;20195;-64
2023/02/26 09:27:47;;;;;;;1.73;1.08;;;1.80;92.40;;;;;;5076655;28;20217;-64
2023/02/26 09:30:15;;;;;;;4.47;1.42;;;1.90;91.90;;;;;;5065070;28;20253;-66
2023/02/26 09:32:41;;;;;;;4.72;1.10;;;1.90;91.50;;;;;;5056451;28;20600;-65
2023/02/26 09:35:09;;;;;;;0.80;0.80;;;2.10;91.30;;;;;;5061715;28;20590;-64
2023/02/26 09:37:39;;;;;;;1.17;0.80;;;2.20;90.30;;;;;;5076631;28;20266;-64
2023/02/26 09:40:07;;;;;;;1.23;1.10;;;2.20;87.50;;;;;;5076737;28;20735;-66
2023/02/26 09:42:53;;;;;;;1.38;1.17;;;2.20;85.20;;;;;;5063342;28;20205;-64
2023/02/26 09:45:27;;;;;;;1.58;0.82;;;2.20;84.40;;;;;;5056627;28;20185;-65
2023/02/26 09:47:55;;;;;;;1.02;0.93;;;2.20;83.20;;;;;;5056530;28;20221;-66
2023/02/26 09:50:25;;;;;;;1.23;0.95;;;2.20;80.10;;;;;;5055802;28;20499;-64
2023/02/26 09:52:56;;;;;;;2.35;1.38;;;2.20;79.10;;;;;;5056224;28;20209;-65
2023/02/26 09:55:29;;;;;;;1.25;1.05;;;2.20;77.20;;;;;;5072490;28;20213;-64
2023/02/26 09:57:59;;;;;;;1.80;1.08;;;2.20;77.50;;;;;;5074244;28;20217;-65
2023/02/26 10:00:34;;;;;;;1.08;0.68;;;2.30;77.60;;;;;;5056123;28;20182;-65
2023/02/26 10:03:13;;;;;;;1.23;0.90;;;2.30;76.90;;;;;;5056138;28;20220;-65
2023/02/26 10:05:52;;;;;;;2.35;1.00;;;2.40;76.00;;;;;;5075937;28;20192;-66
2023/02/26 10:08:27;;;;;;;1.38;0.95;;;2.50;75.00;;;;;;5071690;28;20669;-64
2023/02/26 10:11:03;;;;;;;1.42;0.93;;;2.50;73.10;;;;;;5056399;28;20209;-66
2023/02/26 10:13:37;;;;;;;1.73;1.00;;;2.50;71.90;;;;;;5057343;28;20606;-65
2023/02/26 10:16:09;;;;;;;2.55;1.88;;;2.70;71.70;;;;;;5057753;28;20260;-65
2023/02/26 10:18:41;;;;;;;1.73;1.05;;;2.80;70.70;;;;;;5056701;28;20237;-65
2023/02/26 10:21:12;;;;;;;1.27;0.82;;;2.90;69.50;;;;;;5057380;28;20213;-64
2023/02/26 10:23:47;;;;;;;2.00;1.00;;;2.90;67.90;;;;;;5081607;22;20570;-65
2023/02/26 10:26:19;;;;;;;4.22;1.38;;;2.90;66.60;;;;;;5057271;28;20189;-65
2023/02/26 10:28:54;;;;;;;1.50;0.75;;;3.00;66.00;;;;;;5056809;28;20236;-65
2023/02/26 10:31:30;;;;;;;0.70;0.70;;;3.10;65.40;;;;;;5059645;28;20217;-65
2023/02/26 10:34:06;;;;;;;1.13;1.00;;;3.10;63.80;;;;;;5060477;28;20549;-65
2023/02/26 10:36:40;;;;;;;2.28;0.95;;;3.10;62.80;;;;;;5056273;28;20217;-65
2023/02/26 10:39:31;;;;;;;1.35;1.25;;;3.10;61.50;;;;;;5055641;28;20247;-66
2023/02/26 10:42:02;;;;;;;1.00;0.80;;;3.10;61.70;;;;;;5055744;28;20181;-65
2023/02/26 10:44:36;;;;;;;1.55;1.10;;;3.20;61.50;;;;;;5054983;28;20182;-65
2023/02/26 10:47:13;;;;;;;1.23;1.13;;;3.30;60.90;;;;;;5055031;28;20236;-64
2023/02/26 10:49:55;;;;;;;1.33;0.95;;;3.30;60.10;;;;;;5054680;28;20192;-65
2023/02/26 10:52:24;;;;;;;1.83;1.00;;;3.50;60.00;;;;;;5054871;28;20719;-66
2023/02/26 10:55:23;;;;;;;1.95;1.13;;;3.50;59.40;;;;;;5054566;28;20632;-66
2023/02/26 10:57:56;;;;;;;0.93;0.90;;;3.60;58.90;;;;;;5056358;28;20548;-65
2023/02/26 11:00:23;;;;;;;1.10;1.00;;;3.70;58.50;;;;;;5056989;28;20188;-65
2023/02/26 11:02:52;;;;;;;3.35;1.00;;;3.80;58.10;;;;;;5055323;28;20225;-65
2023/02/26 11:05:22;;;;;;;0.80;0.70;;;3.90;57.50;;;;;;5056014;28;20206;-65
2023/02/26 11:07:52;;;;;;;3.42;1.23;;;4.00;57.20;;;;;;5055305;28;20209;-66
2023/02/26 11:10:23;;;;;;;2.40;0.80;;;4.10;56.90;;;;;;5054566;28;20225;-66
2023/02/26 11:12:51;;;;;;;0.75;0.70;;;4.20;56.50;;;;;;5053870;28;20717;-65
2023/02/26 11:15:20;;;;;;;1.70;1.00;;;4.30;55.90;;;;;;5054532;28;20198;-65
2023/02/26 11:17:48;;;;;;;1.08;0.77;;;4.30;55.30;;;;;;5055222;28;20202;-65
2023/02/26 11:20:24;;;;;;;1.77;1.00;;;4.30;54.70;;;;;;5054194;28;20217;-65
2023/02/26 11:22:55;;;;;;;1.38;0.88;;;4.20;53.90;;;;;;5054831;28;20233;-65
2023/02/26 11:25:25;;;;;;;2.17;1.30;;;4.30;53.70;;;;;;5054749;28;20230;-65
2023/02/26 11:27:58;;;;;;;1.00;0.70;;;4.30;53.40;;;;;;5053954;28;20205;-65
2023/02/26 11:30:29;;;;;;;4.53;1.25;;;4.40;52.60;;;;;;5053783;28;20709;-65
2023/02/26 11:32:59;;;;;;;0.90;0.70;;;4.30;51.70;;;;;;5054016;28;20229;-65
2023/02/26 11:35:27;;;;;;;3.10;1.23;;;4.30;51.30;;;;;;5056300;28;20206;-65
2023/02/26 11:37:59;;;;;;;1.73;1.40;;;4.20;51.00;;;;;;5062470;28;20201;-65
2023/02/26 11:40:35;;;;;;;1.88;1.30;;;4.20;51.10;;;;;;5056891;28;20190;-65
2023/02/26 11:43:06;;;;;;;1.90;1.00;;;4.10;51.20;;;;;;5056645;28;20245;-65
2023/02/26 11:45:36;;;;;;;1.90;0.90;;;4.00;51.10;;;;;;5056327;28;20193;-66
2023/02/26 11:48:05;;;;;;;2.25;1.05;;;3.90;51.30;;;;;;5055298;28;20247;-65
2023/02/26 11:50:37;;;;;;;0.90;0.70;;;4.00;51.70;;;;;;5054145;28;20712;-65
2023/02/26 11:53:08;;;;;;;1.42;0.80;;;4.20;51.50;;;;;;5053977;28;20229;-65
2023/02/26 11:55:44;;;;;;;1.02;0.90;;;4.30;50.30;;;;;;5054685;28;20182;-65
2023/02/26 11:58:18;;;;;;;1.02;0.80;;;4.30;49.80;;;;;;5054522;28;20548;-65
2023/02/26 12:00:45;;;;;;;0.90;0.80;;;4.30;49.90;;;;;;5055173;28;20201;-65
2023/02/26 12:03:17;;;;;;;2.53;1.40;;;4.50;50.20;;;;;;5056806;28;20253;-66
2023/02/26 12:05:44;;;;;;;1.70;0.90;;;4.50;50.00;;;;;;5056288;28;20220;-65
2023/02/26 12:08:18;;;;;;;1.08;0.90;;;4.50;49.90;;;;;;5055190;28;20206;-65
2023/02/26 12:10:55;;;;;;;1.90;1.23;;;4.40;50.20;;;;;;5054436;28;20189;-65
2023/02/26 12:13:27;;;;;;;1.40;0.90;;;4.30;50.20;;;;;;5054569;28;20229;-65
2023/02/26 12:15:58;;;;;;;1.00;0.70;;;4.20;50.10;;;;;;5056453;28;20190;-65
2023/02/26 12:18:39;;;;;;;1.15;0.95;;;4.20;50.20;;;;;;5056225;28;20560;-65
2023/02/26 12:21:17;;;;;;;0.95;0.80;;;4.30;50.00;;;;;;5054138;28;20185;-65
2023/02/26 12:24:14;;;;;;;1.10;0.70;;;4.40;49.80;;;;;;5053148;28;20225;-65
2023/02/26 12:26:54;;;;;;;1.27;0.82;;;4.60;49.40;;;;;;5053637;28;20206;-65
2023/02/26 12:29:41;;;;;;;2.55;1.00;;;4.60;48.90;;;;;;5054703;28;20189;-65
2023/02/26 12:32:27;;;;;;;2.08;0.90;;;4.70;48.10;;;;;;5056042;28;20231;-65
2023/02/26 12:35:17;;;;;;;1.10;1.00;;;4.80;47.50;;;;;;5060367;28;20189;-66
2023/02/26 12:37:53;;;;;;;0.90;0.70;;;4.90;47.40;;;;;;5068822;28;20197;-65
2023/02/26 12:40:45;;;;;;;1.23;0.80;;;5.00;46.40;;;;;;5068457;28;20196;-65
2023/02/26 12:43:23;;;;;;;0.60;0.55;;;4.90;45.80;;;;;;5049137;28;20554;-66
2023/02/26 12:45:58;;;;;;;2.30;1.20;;;4.80;45.80;;;;;;5070576;28;20189;-65
2023/02/26 12:49:10;;;;;;;1.02;0.88;;;4.70;45.90;;;;;;5069988;28;20186;-65
2023/02/26 12:51:50;;;;;;;1.77;0.70;;;4.80;46.30;;;;;;5025962;28;20208;-64
2023/02/26 12:54:39;;;;;;;1.73;0.82;;;4.80;46.60;;;;;;5059222;28;20227;-65
2023/02/26 12:57:33;;;;;;;1.50;0.80;;;4.90;46.70;;;;;;5058765;28;20627;-66
2023/02/26 13:00:16;;;;;;;2.72;1.45;;;4.90;46.90;;;;;;5057295;28;20182;-65
2023/02/26 13:03:13;;;;;;;1.40;0.80;;;5.00;47.00;;;;;;5058054;28;20224;-65
2023/02/26 13:05:52;;;;;;;1.73;0.90;;;4.90;46.80;;;;;;5061052;28;20189;-66
2023/02/26 13:08:25;;;;;;;2.05;1.15;;;4.90;46.90;;;;;;5066826;28;20182;-65
2023/02/26 13:11:01;;;;;;;1.75;0.90;;;4.90;46.40;;;;;;5061589;28;20205;-65
2023/02/26 13:13:48;;;;;;;1.85;1.20;;;4.80;46.40;;;;;;5045202;28;20232;-64